sensor_id;sensor_type;location;lat;lon;timestamp;P1;durP1;ratioP1;P2;durP2;ratioP2
14076;SDS011;7114;51.100;13.998;2024-03-06T00:02:04;29.67;;;13.00;;
14076;SDS011;7114;51.100;13.998;2024-03-06T00:04:30;30.97;;;13.30;;
14076;SDS011;7114;51.100;13.998;2024-03-06T00:06:57;30.90;;;12.32;;
14076;SDS011;7114;51.100;13.998;2024-03-06T00:09:23;30.23;;;12.63;;
14076;SDS011;7114;51.100;13.998;2024-03-06T00:11:52;30.88;;;12.20;;
14076;SDS011;7114;51.100;13.998;2024-03-06T00:14:19;29.92;;;13.18;;
14076;SDS011;7114;51.100;13.998;2024-03-06T00:16:46;31.33;;;12.80;;
14076;SDS011;7114;51.100;13.998;2024-03-06T00:19:15;27.13;;;12.35;;
14076;SDS011;7114;51.100;13.998;2024-03-06T00:21:41;34.58;;;12.73;;
14076;SDS011;7114;51.100;13.998;2024-03-06T00:24:07;31.27;;;13.15;;
14076;SDS011;7114;51.100;13.998;2024-03-06T00:26:34;31.13;;;13.38;;
14076;SDS011;7114;51.100;13.998;2024-03-06T00:29:00;31.00;;;12.93;;
14076;SDS011;7114;51.100;13.998;2024-03-06T00:31:28;30.60;;;13.57;;
14076;SDS011;7114;51.100;13.998;2024-03-06T00:33:54;33.70;;;12.93;;
14076;SDS011;7114;51.100;13.998;2024-03-06T00:36:21;31.20;;;12.27;;
14076;SDS011;7114;51.100;13.998;2024-03-06T00:38:48;31.67;;;13.60;;
14076;SDS011;7114;51.100;13.998;2024-03-06T00:41:15;33.90;;;13.40;;
14076;SDS011;7114;51.100;13.998;2024-03-06T00:43:42;31.50;;;13.27;;
14076;SDS011;7114;51.100;13.998;2024-03-06T00:46:08;30.90;;;12.88;;
14076;SDS011;7114;51.100;13.998;2024-03-06T00:48:36;31.08;;;13.27;;
14076;SDS011;7114;51.100;13.998;2024-03-06T00:51:04;34.25;;;13.40;;
14076;SDS011;7114;51.100;13.998;2024-03-06T00:53:31;32.97;;;13.37;;
14076;SDS011;7114;51.100;13.998;2024-03-06T00:55:57;30.85;;;12.82;;
14076;SDS011;7114;51.100;13.998;2024-03-06T00:58:24;32.58;;;13.38;;
14076;SDS011;7114;51.100;13.998;2024-03-06T01:00:50;33.92;;;12.73;;
14076;SDS011;7114;51.100;13.998;2024-03-06T01:03:16;31.38;;;13.38;;
14076;SDS011;7114;51.100;13.998;2024-03-06T01:05:44;33.37;;;13.30;;
14076;SDS011;7114;51.100;13.998;2024-03-06T01:08:11;31.23;;;13.13;;
14076;SDS011;7114;51.100;13.998;2024-03-06T01:10:37;31.40;;;13.70;;
14076;SDS011;7114;51.100;13.998;2024-03-06T01:13:04;33.70;;;13.30;;
14076;SDS011;7114;51.100;13.998;2024-03-06T01:15:30;31.60;;;13.13;;
14076;SDS011;7114;51.100;13.998;2024-03-06T01:17:57;32.13;;;13.33;;
14076;SDS011;7114;51.100;13.998;2024-03-06T01:20:24;37.70;;;14.68;;
14076;SDS011;7114;51.100;13.998;2024-03-06T01:22:51;31.75;;;13.15;;
14076;SDS011;7114;51.100;13.998;2024-03-06T01:25:18;35.05;;;13.70;;
14076;SDS011;7114;51.100;13.998;2024-03-06T01:27:44;32.47;;;13.27;;
14076;SDS011;7114;51.100;13.998;2024-03-06T01:30:11;31.70;;;12.83;;
14076;SDS011;7114;51.100;13.998;2024-03-06T01:32:37;30.92;;;13.57;;
14076;SDS011;7114;51.100;13.998;2024-03-06T01:35:04;34.95;;;13.55;;
14076;SDS011;7114;51.100;13.998;2024-03-06T01:37:31;31.63;;;13.65;;
14076;SDS011;7114;51.100;13.998;2024-03-06T01:39:59;33.17;;;13.40;;
14076;SDS011;7114;51.100;13.998;2024-03-06T01:42:25;35.20;;;13.80;;
14076;SDS011;7114;51.100;13.998;2024-03-06T01:44:51;36.38;;;14.38;;
14076;SDS011;7114;51.100;13.998;2024-03-06T01:47:18;34.20;;;14.23;;
14076;SDS011;7114;51.100;13.998;2024-03-06T01:49:44;34.22;;;13.65;;
14076;SDS011;7114;51.100;13.998;2024-03-06T01:52:11;35.40;;;14.10;;
14076;SDS011;7114;51.100;13.998;2024-03-06T01:54:40;40.43;;;15.10;;
14076;SDS011;7114;51.100;13.998;2024-03-06T01:57:08;36.53;;;14.65;;
14076;SDS011;7114;51.100;13.998;2024-03-06T01:59:34;33.38;;;14.00;;
14076;SDS011;7114;51.100;13.998;2024-03-06T02:02:01;34.50;;;14.25;;
14076;SDS011;7114;51.100;13.998;2024-03-06T02:04:28;33.35;;;13.60;;
14076;SDS011;7114;51.100;13.998;2024-03-06T02:06:55;32.47;;;13.23;;
14076;SDS011;7114;51.100;13.998;2024-03-06T02:09:22;34.15;;;13.93;;
14076;SDS011;7114;51.100;13.998;2024-03-06T02:11:49;33.17;;;13.60;;
14076;SDS011;7114;51.100;13.998;2024-03-06T02:14:17;37.45;;;13.98;;
14076;SDS011;7114;51.100;13.998;2024-03-06T02:16:43;34.70;;;14.27;;
14076;SDS011;7114;51.100;13.998;2024-03-06T02:19:10;33.53;;;13.27;;
14076;SDS011;7114;51.100;13.998;2024-03-06T02:21:38;36.33;;;13.48;;
14076;SDS011;7114;51.100;13.998;2024-03-06T02:24:04;34.50;;;14.13;;
14076;SDS011;7114;51.100;13.998;2024-03-06T02:26:31;35.47;;;14.10;;
14076;SDS011;7114;51.100;13.998;2024-03-06T02:28:57;36.58;;;13.63;;
14076;SDS011;7114;51.100;13.998;2024-03-06T02:31:24;38.13;;;14.60;;
14076;SDS011;7114;51.100;13.998;2024-03-06T02:33:50;34.92;;;14.50;;
14076;SDS011;7114;51.100;13.998;2024-03-06T02:36:16;39.80;;;15.43;;
14076;SDS011;7114;51.100;13.998;2024-03-06T02:38:44;35.33;;;14.13;;
14076;SDS011;7114;51.100;13.998;2024-03-06T02:41:11;38.00;;;15.18;;
14076;SDS011;7114;51.100;13.998;2024-03-06T02:43:41;41.27;;;15.17;;
14076;SDS011;7114;51.100;13.998;2024-03-06T02:46:07;43.50;;;15.27;;
14076;SDS011;7114;51.100;13.998;2024-03-06T02:48:34;36.25;;;14.50;;
14076;SDS011;7114;51.100;13.998;2024-03-06T02:51:00;38.47;;;14.98;;
14076;SDS011;7114;51.100;13.998;2024-03-06T02:53:26;37.95;;;14.75;;
14076;SDS011;7114;51.100;13.998;2024-03-06T02:55:54;37.57;;;14.77;;
14076;SDS011;7114;51.100;13.998;2024-03-06T02:58:20;37.53;;;15.43;;
14076;SDS011;7114;51.100;13.998;2024-03-06T03:00:47;39.70;;;14.93;;
14076;SDS011;7114;51.100;13.998;2024-03-06T03:03:13;38.35;;;16.20;;
14076;SDS011;7114;51.100;13.998;2024-03-06T03:05:40;37.92;;;14.73;;
14076;SDS011;7114;51.100;13.998;2024-03-06T03:08:06;38.63;;;14.80;;
14076;SDS011;7114;51.100;13.998;2024-03-06T03:10:33;36.20;;;14.88;;
14076;SDS011;7114;51.100;13.998;2024-03-06T03:13:01;35.03;;;15.50;;
14076;SDS011;7114;51.100;13.998;2024-03-06T03:15:29;41.03;;;15.32;;
14076;SDS011;7114;51.100;13.998;2024-03-06T03:17:56;37.28;;;14.05;;
14076;SDS011;7114;51.100;13.998;2024-03-06T03:20:22;37.07;;;14.77;;
14076;SDS011;7114;51.100;13.998;2024-03-06T03:22:48;37.70;;;14.77;;
14076;SDS011;7114;51.100;13.998;2024-03-06T03:25:15;36.10;;;14.07;;
14076;SDS011;7114;51.100;13.998;2024-03-06T03:27:41;34.72;;;13.50;;
14076;SDS011;7114;51.100;13.998;2024-03-06T03:30:10;37.25;;;13.90;;
14076;SDS011;7114;51.100;13.998;2024-03-06T03:32:37;39.63;;;14.50;;
14076;SDS011;7114;51.100;13.998;2024-03-06T03:35:04;35.40;;;14.35;;
14076;SDS011;7114;51.100;13.998;2024-03-06T03:37:31;37.45;;;14.23;;
14076;SDS011;7114;51.100;13.998;2024-03-06T03:39:57;35.75;;;13.93;;
14076;SDS011;7114;51.100;13.998;2024-03-06T03:42:23;39.38;;;14.20;;
14076;SDS011;7114;51.100;13.998;2024-03-06T03:44:51;34.50;;;13.77;;
14076;SDS011;7114;51.100;13.998;2024-03-06T03:47:19;37.95;;;14.63;;
14076;SDS011;7114;51.100;13.998;2024-03-06T03:49:45;36.25;;;14.15;;
14076;SDS011;7114;51.100;13.998;2024-03-06T03:52:12;33.75;;;13.43;;
14076;SDS011;7114;51.100;13.998;2024-03-06T03:54:39;34.40;;;13.20;;
14076;SDS011;7114;51.100;13.998;2024-03-06T03:57:05;37.60;;;14.93;;
14076;SDS011;7114;51.100;13.998;2024-03-06T03:59:33;34.10;;;13.00;;
14076;SDS011;7114;51.100;13.998;2024-03-06T04:02:00;35.15;;;14.40;;
14076;SDS011;7114;51.100;13.998;2024-03-06T04:04:28;34.22;;;14.48;;
14076;SDS011;7114;51.100;13.998;2024-03-06T04:06:54;34.33;;;13.60;;
14076;SDS011;7114;51.100;13.998;2024-03-06T04:09:20;34.67;;;14.00;;
14076;SDS011;7114;51.100;13.998;2024-03-06T04:11:47;35.28;;;13.60;;
14076;SDS011;7114;51.100;13.998;2024-03-06T04:14:13;35.00;;;13.15;;
14076;SDS011;7114;51.100;13.998;2024-03-06T04:16:39;35.88;;;13.50;;
14076;SDS011;7114;51.100;13.998;2024-03-06T04:19:06;37.60;;;14.40;;
14076;SDS011;7114;51.100;13.998;2024-03-06T04:21:33;36.77;;;14.47;;
14076;SDS011;7114;51.100;13.998;2024-03-06T04:24:00;37.55;;;14.55;;
14076;SDS011;7114;51.100;13.998;2024-03-06T04:26:26;38.50;;;14.20;;
14076;SDS011;7114;51.100;13.998;2024-03-06T04:28:52;36.42;;;13.63;;
14076;SDS011;7114;51.100;13.998;2024-03-06T04:31:19;38.70;;;15.18;;
14076;SDS011;7114;51.100;13.998;2024-03-06T04:33:45;39.17;;;14.20;;
14076;SDS011;7114;51.100;13.998;2024-03-06T04:36:11;36.47;;;14.30;;
14076;SDS011;7114;51.100;13.998;2024-03-06T04:38:40;39.67;;;14.63;;
14076;SDS011;7114;51.100;13.998;2024-03-06T04:41:06;39.97;;;14.95;;
14076;SDS011;7114;51.100;13.998;2024-03-06T04:43:33;40.17;;;14.80;;
14076;SDS011;7114;51.100;13.998;2024-03-06T04:46:00;36.53;;;14.27;;
14076;SDS011;7114;51.100;13.998;2024-03-06T04:48:26;38.42;;;13.90;;
14076;SDS011;7114;51.100;13.998;2024-03-06T04:50:52;38.95;;;14.35;;
14076;SDS011;7114;51.100;13.998;2024-03-06T04:53:19;37.40;;;13.85;;
14076;SDS011;7114;51.100;13.998;2024-03-06T04:55:46;35.63;;;15.23;;
14076;SDS011;7114;51.100;13.998;2024-03-06T04:58:13;38.13;;;14.77;;
14076;SDS011;7114;51.100;13.998;2024-03-06T05:00:39;38.35;;;15.55;;
14076;SDS011;7114;51.100;13.998;2024-03-06T05:03:06;40.50;;;15.35;;
14076;SDS011;7114;51.100;13.998;2024-03-06T05:05:32;37.63;;;14.80;;
14076;SDS011;7114;51.100;13.998;2024-03-06T05:07:58;36.22;;;13.82;;
14076;SDS011;7114;51.100;13.998;2024-03-06T05:10:25;36.70;;;14.50;;
14076;SDS011;7114;51.100;13.998;2024-03-06T05:12:53;37.38;;;14.50;;
14076;SDS011;7114;51.100;13.998;2024-03-06T05:15:20;41.42;;;15.68;;
14076;SDS011;7114;51.100;13.998;2024-03-06T05:17:46;38.13;;;15.57;;
14076;SDS011;7114;51.100;13.998;2024-03-06T05:20:12;38.25;;;15.05;;
14076;SDS011;7114;51.100;13.998;2024-03-06T05:22:39;35.53;;;15.23;;
14076;SDS011;7114;51.100;13.998;2024-03-06T05:25:05;37.45;;;14.98;;
14076;SDS011;7114;51.100;13.998;2024-03-06T05:27:32;35.40;;;14.38;;
14076;SDS011;7114;51.100;13.998;2024-03-06T05:30:00;37.45;;;15.02;;
14076;SDS011;7114;51.100;13.998;2024-03-06T05:32:26;35.78;;;13.75;;
14076;SDS011;7114;51.100;13.998;2024-03-06T05:34:52;38.77;;;15.03;;
14076;SDS011;7114;51.100;13.998;2024-03-06T05:37:19;36.90;;;14.43;;
14076;SDS011;7114;51.100;13.998;2024-03-06T05:39:45;40.08;;;14.50;;
14076;SDS011;7114;51.100;13.998;2024-03-06T05:42:12;38.47;;;15.50;;
14076;SDS011;7114;51.100;13.998;2024-03-06T05:44:38;36.30;;;14.63;;
14076;SDS011;7114;51.100;13.998;2024-03-06T05:47:07;36.20;;;14.53;;
14076;SDS011;7114;51.100;13.998;2024-03-06T05:49:33;36.05;;;14.35;;
14076;SDS011;7114;51.100;13.998;2024-03-06T05:51:59;35.63;;;14.15;;
14076;SDS011;7114;51.100;13.998;2024-03-06T05:54:26;37.63;;;14.55;;
14076;SDS011;7114;51.100;13.998;2024-03-06T05:56:52;37.67;;;14.52;;
14076;SDS011;7114;51.100;13.998;2024-03-06T05:59:19;32.53;;;13.53;;
14076;SDS011;7114;51.100;13.998;2024-03-06T06:01:45;36.10;;;14.05;;
14076;SDS011;7114;51.100;13.998;2024-03-06T06:04:13;35.88;;;13.80;;
14076;SDS011;7114;51.100;13.998;2024-03-06T06:06:40;37.63;;;14.35;;
14076;SDS011;7114;51.100;13.998;2024-03-06T06:09:06;39.70;;;14.85;;
14076;SDS011;7114;51.100;13.998;2024-03-06T06:11:37;39.63;;;14.93;;
14076;SDS011;7114;51.100;13.998;2024-03-06T06:14:04;38.92;;;14.05;;
14076;SDS011;7114;51.100;13.998;2024-03-06T06:16:34;38.13;;;15.00;;
14076;SDS011;7114;51.100;13.998;2024-03-06T06:19:01;38.75;;;15.57;;
14076;SDS011;7114;51.100;13.998;2024-03-06T06:21:28;44.28;;;15.80;;
14076;SDS011;7114;51.100;13.998;2024-03-06T06:23:55;37.27;;;14.50;;
14076;SDS011;7114;51.100;13.998;2024-03-06T06:26:21;34.72;;;12.80;;
14076;SDS011;7114;51.100;13.998;2024-03-06T06:28:47;38.13;;;14.05;;
14076;SDS011;7114;51.100;13.998;2024-03-06T06:31:14;40.72;;;15.27;;
14076;SDS011;7114;51.100;13.998;2024-03-06T06:33:40;38.33;;;14.45;;
14076;SDS011;7114;51.100;13.998;2024-03-06T06:36:07;40.77;;;15.70;;
14076;SDS011;7114;51.100;13.998;2024-03-06T06:38:34;40.20;;;16.23;;
14076;SDS011;7114;51.100;13.998;2024-03-06T06:41:01;43.25;;;15.93;;
14076;SDS011;7114;51.100;13.998;2024-03-06T06:43:27;41.15;;;15.52;;
14076;SDS011;7114;51.100;13.998;2024-03-06T06:45:54;39.47;;;15.60;;
14076;SDS011;7114;51.100;13.998;2024-03-06T06:48:20;38.13;;;14.60;;
14076;SDS011;7114;51.100;13.998;2024-03-06T06:50:47;43.42;;;16.20;;
14076;SDS011;7114;51.100;13.998;2024-03-06T06:53:14;39.83;;;16.13;;
14076;SDS011;7114;51.100;13.998;2024-03-06T06:55:42;37.53;;;15.13;;
14076;SDS011;7114;51.100;13.998;2024-03-06T06:58:08;38.55;;;14.50;;
14076;SDS011;7114;51.100;13.998;2024-03-06T07:00:34;34.43;;;13.97;;
14076;SDS011;7114;51.100;13.998;2024-03-06T07:03:02;36.42;;;14.65;;
14076;SDS011;7114;51.100;13.998;2024-03-06T07:05:29;34.90;;;14.05;;
14076;SDS011;7114;51.100;13.998;2024-03-06T07:07:55;34.97;;;14.15;;
14076;SDS011;7114;51.100;13.998;2024-03-06T07:10:21;34.67;;;14.07;;
14076;SDS011;7114;51.100;13.998;2024-03-06T07:12:49;36.33;;;14.63;;
14076;SDS011;7114;51.100;13.998;2024-03-06T07:15:16;35.30;;;15.38;;
14076;SDS011;7114;51.100;13.998;2024-03-06T07:17:42;33.03;;;13.85;;
14076;SDS011;7114;51.100;13.998;2024-03-06T07:20:09;33.63;;;13.65;;
14076;SDS011;7114;51.100;13.998;2024-03-06T07:22:36;35.42;;;13.65;;
14076;SDS011;7114;51.100;13.998;2024-03-06T07:25:03;35.50;;;13.97;;
14076;SDS011;7114;51.100;13.998;2024-03-06T07:27:30;34.05;;;14.77;;
14076;SDS011;7114;51.100;13.998;2024-03-06T07:29:58;32.45;;;13.60;;
14076;SDS011;7114;51.100;13.998;2024-03-06T07:32:24;32.13;;;13.70;;
14076;SDS011;7114;51.100;13.998;2024-03-06T07:34:51;34.70;;;13.65;;
14076;SDS011;7114;51.100;13.998;2024-03-06T07:37:17;33.60;;;14.23;;
14076;SDS011;7114;51.100;13.998;2024-03-06T07:39:45;34.97;;;14.90;;
14076;SDS011;7114;51.100;13.998;2024-03-06T07:42:11;35.13;;;13.95;;
14076;SDS011;7114;51.100;13.998;2024-03-06T07:44:38;34.42;;;15.07;;
14076;SDS011;7114;51.100;13.998;2024-03-06T07:47:06;34.25;;;14.35;;
14076;SDS011;7114;51.100;13.998;2024-03-06T07:49:33;34.37;;;15.07;;
14076;SDS011;7114;51.100;13.998;2024-03-06T07:52:00;32.75;;;14.50;;
14076;SDS011;7114;51.100;13.998;2024-03-06T07:54:27;34.83;;;14.60;;
14076;SDS011;7114;51.100;13.998;2024-03-06T07:56:53;34.00;;;14.35;;
14076;SDS011;7114;51.100;13.998;2024-03-06T07:59:19;36.47;;;16.13;;
14076;SDS011;7114;51.100;13.998;2024-03-06T08:01:46;38.50;;;15.87;;
14076;SDS011;7114;51.100;13.998;2024-03-06T08:04:14;36.50;;;15.20;;
14076;SDS011;7114;51.100;13.998;2024-03-06T08:06:40;35.40;;;15.38;;
14076;SDS011;7114;51.100;13.998;2024-03-06T08:09:07;38.50;;;15.75;;
14076;SDS011;7114;51.100;13.998;2024-03-06T08:11:33;35.53;;;15.00;;
14076;SDS011;7114;51.100;13.998;2024-03-06T08:14:00;39.30;;;15.80;;
14076;SDS011;7114;51.100;13.998;2024-03-06T08:16:27;36.22;;;15.60;;
14076;SDS011;7114;51.100;13.998;2024-03-06T08:18:55;36.90;;;14.90;;
14076;SDS011;7114;51.100;13.998;2024-03-06T08:21:22;36.22;;;16.45;;
14076;SDS011;7114;51.100;13.998;2024-03-06T08:23:49;39.72;;;16.88;;
14076;SDS011;7114;51.100;13.998;2024-03-06T08:26:15;39.97;;;17.57;;
14076;SDS011;7114;51.100;13.998;2024-03-06T08:28:42;36.35;;;16.40;;
14076;SDS011;7114;51.100;13.998;2024-03-06T08:31:08;37.00;;;16.60;;
14076;SDS011;7114;51.100;13.998;2024-03-06T08:33:34;35.92;;;16.30;;
14076;SDS011;7114;51.100;13.998;2024-03-06T08:36:01;38.60;;;17.77;;
14076;SDS011;7114;51.100;13.998;2024-03-06T08:38:29;36.23;;;15.97;;
14076;SDS011;7114;51.100;13.998;2024-03-06T08:40:56;37.83;;;17.30;;
14076;SDS011;7114;51.100;13.998;2024-03-06T08:43:22;35.55;;;15.85;;
14076;SDS011;7114;51.100;13.998;2024-03-06T08:45:48;37.22;;;16.95;;
14076;SDS011;7114;51.100;13.998;2024-03-06T08:48:15;35.92;;;17.35;;
14076;SDS011;7114;51.100;13.998;2024-03-06T08:50:41;37.60;;;16.30;;
14076;SDS011;7114;51.100;13.998;2024-03-06T08:53:07;36.13;;;16.27;;
14076;SDS011;7114;51.100;13.998;2024-03-06T08:55:36;36.13;;;16.55;;
14076;SDS011;7114;51.100;13.998;2024-03-06T08:58:04;33.90;;;16.40;;
14076;SDS011;7114;51.100;13.998;2024-03-06T09:00:30;35.30;;;17.40;;
14076;SDS011;7114;51.100;13.998;2024-03-06T09:02:56;36.10;;;18.07;;
14076;SDS011;7114;51.100;13.998;2024-03-06T09:05:24;37.38;;;17.85;;
14076;SDS011;7114;51.100;13.998;2024-03-06T09:07:51;32.97;;;16.92;;
14076;SDS011;7114;51.100;13.998;2024-03-06T09:10:17;36.47;;;18.65;;
14076;SDS011;7114;51.100;13.998;2024-03-06T09:12:46;33.10;;;16.52;;
14076;SDS011;7114;51.100;13.998;2024-03-06T09:15:14;33.47;;;17.13;;
14076;SDS011;7114;51.100;13.998;2024-03-06T09:17:41;34.92;;;16.88;;
14076;SDS011;7114;51.100;13.998;2024-03-06T09:20:08;33.58;;;17.10;;
14076;SDS011;7114;51.100;13.998;2024-03-06T09:22:36;32.13;;;16.17;;
14076;SDS011;7114;51.100;13.998;2024-03-06T09:25:03;33.20;;;17.33;;
14076;SDS011;7114;51.100;13.998;2024-03-06T09:27:30;31.63;;;16.03;;
14076;SDS011;7114;51.100;13.998;2024-03-06T09:29:58;32.38;;;16.58;;
14076;SDS011;7114;51.100;13.998;2024-03-06T09:32:24;27.52;;;14.98;;
14076;SDS011;7114;51.100;13.998;2024-03-06T09:34:51;28.90;;;15.32;;
14076;SDS011;7114;51.100;13.998;2024-03-06T09:37:17;30.88;;;17.65;;
14076;SDS011;7114;51.100;13.998;2024-03-06T09:39:44;33.70;;;18.47;;
14076;SDS011;7114;51.100;13.998;2024-03-06T09:42:12;31.52;;;17.50;;
14076;SDS011;7114;51.100;13.998;2024-03-06T09:44:38;32.45;;;18.10;;
14076;SDS011;7114;51.100;13.998;2024-03-06T09:47:06;31.80;;;17.73;;
14076;SDS011;7114;51.100;13.998;2024-03-06T09:49:33;30.38;;;17.25;;
14076;SDS011;7114;51.100;13.998;2024-03-06T09:52:00;30.67;;;17.50;;
14076;SDS011;7114;51.100;13.998;2024-03-06T09:54:29;32.55;;;17.15;;
14076;SDS011;7114;51.100;13.998;2024-03-06T09:56:55;29.73;;;16.45;;
14076;SDS011;7114;51.100;13.998;2024-03-06T09:59:24;31.27;;;17.55;;
14076;SDS011;7114;51.100;13.998;2024-03-06T10:01:53;34.03;;;18.55;;
14076;SDS011;7114;51.100;13.998;2024-03-06T10:04:23;32.13;;;18.47;;
14076;SDS011;7114;51.100;13.998;2024-03-06T10:06:50;35.42;;;18.88;;
14076;SDS011;7114;51.100;13.998;2024-03-06T10:09:20;38.17;;;19.85;;
14076;SDS011;7114;51.100;13.998;2024-03-06T10:11:46;33.40;;;18.73;;
14076;SDS011;7114;51.100;13.998;2024-03-06T10:14:13;31.73;;;17.52;;
14076;SDS011;7114;51.100;13.998;2024-03-06T10:16:51;34.37;;;18.87;;
14076;SDS011;7114;51.100;13.998;2024-03-06T10:19:22;35.08;;;18.85;;
14076;SDS011;7114;51.100;13.998;2024-03-06T10:21:49;33.92;;;19.52;;
14076;SDS011;7114;51.100;13.998;2024-03-06T10:24:18;35.35;;;19.05;;
14076;SDS011;7114;51.100;13.998;2024-03-06T10:26:45;33.00;;;18.33;;
14076;SDS011;7114;51.100;13.998;2024-03-06T10:29:13;33.50;;;18.60;;
14076;SDS011;7114;51.100;13.998;2024-03-06T10:31:41;34.90;;;18.08;;
14076;SDS011;7114;51.100;13.998;2024-03-06T10:34:09;34.45;;;18.95;;
14076;SDS011;7114;51.100;13.998;2024-03-06T10:36:36;35.63;;;19.58;;
14076;SDS011;7114;51.100;13.998;2024-03-06T10:39:03;35.72;;;18.98;;
14076;SDS011;7114;51.100;13.998;2024-03-06T10:41:30;36.47;;;19.20;;
14076;SDS011;7114;51.100;13.998;2024-03-06T10:43:59;32.92;;;18.15;;
14076;SDS011;7114;51.100;13.998;2024-03-06T10:46:26;33.75;;;17.92;;
14076;SDS011;7114;51.100;13.998;2024-03-06T10:48:53;35.70;;;18.65;;
14076;SDS011;7114;51.100;13.998;2024-03-06T10:51:23;33.08;;;17.55;;
14076;SDS011;7114;51.100;13.998;2024-03-06T10:53:52;32.03;;;17.30;;
14076;SDS011;7114;51.100;13.998;2024-03-06T10:56:19;30.45;;;16.88;;
14076;SDS011;7114;51.100;13.998;2024-03-06T10:58:47;30.60;;;16.73;;
14076;SDS011;7114;51.100;13.998;2024-03-06T11:01:17;35.60;;;18.60;;
14076;SDS011;7114;51.100;13.998;2024-03-06T11:03:44;33.85;;;17.98;;
14076;SDS011;7114;51.100;13.998;2024-03-06T11:06:12;35.40;;;18.60;;
14076;SDS011;7114;51.100;13.998;2024-03-06T11:08:39;36.42;;;19.13;;
14076;SDS011;7114;51.100;13.998;2024-03-06T11:11:20;32.65;;;17.35;;
14076;SDS011;7114;51.100;13.998;2024-03-06T11:13:47;32.08;;;16.33;;
14076;SDS011;7114;51.100;13.998;2024-03-06T11:16:13;34.58;;;17.60;;
14076;SDS011;7114;51.100;13.998;2024-03-06T11:18:40;33.57;;;17.00;;
14076;SDS011;7114;51.100;13.998;2024-03-06T11:24:13;32.35;;;16.42;;
14076;SDS011;7114;51.100;13.998;2024-03-06T11:26:48;33.63;;;17.45;;
14076;SDS011;7114;51.100;13.998;2024-03-06T11:29:22;35.13;;;17.73;;
14076;SDS011;7114;51.100;13.998;2024-03-06T11:31:57;34.97;;;17.00;;
14076;SDS011;7114;51.100;13.998;2024-03-06T11:34:25;35.28;;;17.50;;
14076;SDS011;7114;51.100;13.998;2024-03-06T11:36:53;39.47;;;19.15;;
14076;SDS011;7114;51.100;13.998;2024-03-06T11:39:19;41.65;;;19.30;;
14076;SDS011;7114;51.100;13.998;2024-03-06T11:41:46;40.10;;;18.23;;
14076;SDS011;7114;51.100;13.998;2024-03-06T11:44:15;38.90;;;17.73;;
14076;SDS011;7114;51.100;13.998;2024-03-06T11:46:42;42.13;;;18.42;;
14076;SDS011;7114;51.100;13.998;2024-03-06T11:49:14;41.15;;;18.17;;
14076;SDS011;7114;51.100;13.998;2024-03-06T11:51:41;39.72;;;18.10;;
14076;SDS011;7114;51.100;13.998;2024-03-06T11:54:07;39.33;;;18.02;;
14076;SDS011;7114;51.100;13.998;2024-03-06T11:56:35;39.30;;;19.00;;
14076;SDS011;7114;51.100;13.998;2024-03-06T11:59:02;40.72;;;18.98;;
14076;SDS011;7114;51.100;13.998;2024-03-06T12:01:30;37.45;;;17.98;;
14076;SDS011;7114;51.100;13.998;2024-03-06T12:03:57;42.10;;;20.00;;
14076;SDS011;7114;51.100;13.998;2024-03-06T12:06:23;38.67;;;18.30;;
14076;SDS011;7114;51.100;13.998;2024-03-06T12:08:49;40.40;;;19.77;;
14076;SDS011;7114;51.100;13.998;2024-03-06T12:11:16;38.42;;;18.13;;
14076;SDS011;7114;51.100;13.998;2024-03-06T12:13:43;36.28;;;16.83;;
14076;SDS011;7114;51.100;13.998;2024-03-06T12:16:11;35.03;;;16.85;;
14076;SDS011;7114;51.100;13.998;2024-03-06T12:18:39;34.35;;;16.48;;
14076;SDS011;7114;51.100;13.998;2024-03-06T12:21:05;34.77;;;17.33;;
14076;SDS011;7114;51.100;13.998;2024-03-06T12:23:31;34.70;;;17.27;;
14076;SDS011;7114;51.100;13.998;2024-03-06T12:26:04;34.10;;;17.23;;
14076;SDS011;7114;51.100;13.998;2024-03-06T12:28:31;34.08;;;17.00;;
14076;SDS011;7114;51.100;13.998;2024-03-06T12:30:58;32.67;;;16.70;;
14076;SDS011;7114;51.100;13.998;2024-03-06T12:33:28;33.93;;;17.37;;
14076;SDS011;7114;51.100;13.998;2024-03-06T12:36:05;35.90;;;17.95;;
14076;SDS011;7114;51.100;13.998;2024-03-06T12:38:35;32.78;;;16.42;;
14076;SDS011;7114;51.100;13.998;2024-03-06T12:41:02;33.85;;;18.02;;
14076;SDS011;7114;51.100;13.998;2024-03-06T12:43:29;33.78;;;16.75;;
14076;SDS011;7114;51.100;13.998;2024-03-06T12:45:55;31.83;;;16.37;;
14076;SDS011;7114;51.100;13.998;2024-03-06T12:48:22;35.30;;;16.58;;
14076;SDS011;7114;51.100;13.998;2024-03-06T12:50:49;31.98;;;16.33;;
14076;SDS011;7114;51.100;13.998;2024-03-06T12:53:19;33.33;;;17.55;;
14076;SDS011;7114;51.100;13.998;2024-03-06T12:55:46;33.67;;;17.23;;
14076;SDS011;7114;51.100;13.998;2024-03-06T12:58:13;31.33;;;15.97;;
14076;SDS011;7114;51.100;13.998;2024-03-06T13:00:40;31.73;;;16.60;;
14076;SDS011;7114;51.100;13.998;2024-03-06T13:03:06;31.75;;;16.27;;
14076;SDS011;7114;51.100;13.998;2024-03-06T13:05:33;31.58;;;16.63;;
14076;SDS011;7114;51.100;13.998;2024-03-06T13:07:59;32.50;;;17.45;;
14076;SDS011;7114;51.100;13.998;2024-03-06T13:10:27;29.07;;;15.33;;
14076;SDS011;7114;51.100;13.998;2024-03-06T13:12:53;34.92;;;17.55;;
14076;SDS011;7114;51.100;13.998;2024-03-06T13:15:20;32.38;;;17.38;;
14076;SDS011;7114;51.100;13.998;2024-03-06T13:17:47;31.85;;;16.75;;
14076;SDS011;7114;51.100;13.998;2024-03-06T13:20:13;31.25;;;16.77;;
14076;SDS011;7114;51.100;13.998;2024-03-06T13:22:40;34.87;;;17.57;;
14076;SDS011;7114;51.100;13.998;2024-03-06T13:25:06;30.42;;;16.63;;
14076;SDS011;7114;51.100;13.998;2024-03-06T13:27:34;30.77;;;16.17;;
14076;SDS011;7114;51.100;13.998;2024-03-06T13:30:01;32.40;;;17.17;;
14076;SDS011;7114;51.100;13.998;2024-03-06T13:32:27;31.33;;;16.38;;
14076;SDS011;7114;51.100;13.998;2024-03-06T13:34:54;27.77;;;15.27;;
14076;SDS011;7114;51.100;13.998;2024-03-06T13:37:21;25.83;;;14.38;;
14076;SDS011;7114;51.100;13.998;2024-03-06T13:39:48;26.42;;;15.02;;
14076;SDS011;7114;51.100;13.998;2024-03-06T13:42:15;29.05;;;15.38;;
14076;SDS011;7114;51.100;13.998;2024-03-06T13:44:42;28.08;;;16.48;;
14076;SDS011;7114;51.100;13.998;2024-03-06T13:47:14;29.03;;;15.60;;
14076;SDS011;7114;51.100;13.998;2024-03-06T13:49:41;29.42;;;15.80;;
14076;SDS011;7114;51.100;13.998;2024-03-06T13:52:08;25.63;;;14.48;;
14076;SDS011;7114;51.100;13.998;2024-03-06T13:54:37;25.90;;;14.13;;
14076;SDS011;7114;51.100;13.998;2024-03-06T13:57:04;25.27;;;12.95;;
14076;SDS011;7114;51.100;13.998;2024-03-06T13:59:31;24.33;;;12.60;;
14076;SDS011;7114;51.100;13.998;2024-03-06T14:01:58;26.98;;;13.45;;
14076;SDS011;7114;51.100;13.998;2024-03-06T14:04:25;28.35;;;12.85;;
14076;SDS011;7114;51.100;13.998;2024-03-06T14:06:52;23.52;;;12.02;;
14076;SDS011;7114;51.100;13.998;2024-03-06T14:09:18;24.38;;;11.27;;
14076;SDS011;7114;51.100;13.998;2024-03-06T14:11:44;26.17;;;12.07;;
14076;SDS011;7114;51.100;13.998;2024-03-06T14:14:11;23.80;;;12.30;;
14076;SDS011;7114;51.100;13.998;2024-03-06T14:16:38;25.13;;;12.23;;
14076;SDS011;7114;51.100;13.998;2024-03-06T14:19:07;25.25;;;11.95;;
14076;SDS011;7114;51.100;13.998;2024-03-06T14:21:33;23.00;;;11.93;;
14076;SDS011;7114;51.100;13.998;2024-03-06T14:24:00;28.23;;;13.83;;